Terminal Aerodrome Forecast
Issued by NWS

Home | Current Version | Previous Version | Text Only | Print | Product List | Glossary On
Versions: 1 2 3 4 5 6 7 8 9 10 11 12 13 14 15 16 17 18 19 20 21 22 23 24 25 26 27 28
271
FTUS44 KFWD 261459 AAA
TAFAFW
TAF AMD
KAFW 261459Z 2615/2712 16012KT P6SM BKN012
     FM261600 17020G30KT P6SM SCT020 BKN250
     FM262300 17020G30KT P6SM VCTS SCT040CB BKN150
     FM270100 17017KT P6SM SCT045 SCT100
     FM270600 18016KT P6SM BKN015
     FM270900 25008KT P6SM BKN009=

USA.gov is the U.S. government's official web portal to all federal, state and local government web resources and services.